Ul'yanovsk, Russia
Current Conditions -  °F | °C
As of 10:00 AM on Monday 22 Dec 2014 (Local Time) from UWLW Reporting Station
Haze Haze  
Wind Chill: 24°   Ceiling: 400
Heat Index: 32°   Visibility: 3mi
Dew Point: 32°   Wind: 9mph
Humidity: 100%   Direction: 190°S
Pressure: 29.59"   Gusts: NA
Location:  54.17°N, 48.38°E
Report Text: UWLW 220700Z 19004MPS 5000 BR OVC004 M00/M00 Q1002 20490532TEMPO 2100 -SNRA BR OVC003 RMK QFE746
Loading
Personal Weather Stations






























Interactive Weather Map New forecast layout! Learn more

10-Day Weather Forecast

Advertisements
Track Severe Weather on mobile